sensor_id;sensor_type;location;lat;lon;timestamp;pressure;altitude;pressure_sealevel;temperature;humidity
12203;BME280;6164;42.178;24.622;2024-01-11T00:00:53;100924.78;;;-2.22;100.00
12203;BME280;6164;42.178;24.622;2024-01-11T00:03:20;100913.75;;;-2.26;100.00
12203;BME280;6164;42.178;24.622;2024-01-11T00:05:46;100912.59;;;-2.42;100.00
12203;BME280;6164;42.178;24.622;2024-01-11T00:08:14;100922.31;;;-2.48;100.00
12203;BME280;6164;42.178;24.622;2024-01-11T00:10:41;100916.69;;;-2.59;100.00
12203;BME280;6164;42.178;24.622;2024-01-11T00:13:07;100919.84;;;-2.51;100.00
12203;BME280;6164;42.178;24.622;2024-01-11T00:15:34;100918.66;;;-2.43;100.00
12203;BME280;6164;42.178;24.622;2024-01-11T00:18:03;100915.19;;;-2.42;100.00
12203;BME280;6164;42.178;24.622;2024-01-11T00:20:30;100914.19;;;-2.38;100.00
12203;BME280;6164;42.178;24.622;2024-01-11T00:22:56;100907.09;;;-2.33;100.00
12203;BME280;6164;42.178;24.622;2024-01-11T00:25:24;100907.09;;;-2.33;100.00
12203;BME280;6164;42.178;24.622;2024-01-11T00:27:51;100901.19;;;-2.36;100.00
12203;BME280;6164;42.178;24.622;2024-01-11T00:30:17;100895.03;;;-2.32;100.00
12203;BME280;6164;42.178;24.622;2024-01-11T00:32:44;100889.00;;;-2.33;100.00
12203;BME280;6164;42.178;24.622;2024-01-11T00:35:10;100879.66;;;-2.37;100.00
12203;BME280;6164;42.178;24.622;2024-01-11T00:37:37;100877.78;;;-2.56;100.00
12203;BME280;6164;42.178;24.622;2024-01-11T00:40:04;100870.06;;;-2.81;100.00
12203;BME280;6164;42.178;24.622;2024-01-11T00:42:32;100879.59;;;-2.83;100.00
12203;BME280;6164;42.178;24.622;2024-01-11T00:45:00;100866.38;;;-2.74;100.00
12203;BME280;6164;42.178;24.622;2024-01-11T00:47:26;100861.38;;;-2.79;100.00
12203;BME280;6164;42.178;24.622;2024-01-11T00:49:53;100860.34;;;-2.75;100.00
12203;BME280;6164;42.178;24.622;2024-01-11T00:52:20;100851.44;;;-2.66;100.00
12203;BME280;6164;42.178;24.622;2024-01-11T00:54:46;100852.91;;;-2.59;100.00
12203;BME280;6164;42.178;24.622;2024-01-11T00:57:13;100853.72;;;-2.58;100.00
12203;BME280;6164;42.178;24.622;2024-01-11T00:59:41;100849.53;;;-2.61;100.00
12203;BME280;6164;42.178;24.622;2024-01-11T01:02:07;100844.41;;;-2.62;100.00
12203;BME280;6164;42.178;24.622;2024-01-11T01:04:37;100845.34;;;-2.65;100.00
12203;BME280;6164;42.178;24.622;2024-01-11T01:07:03;100845.28;;;-2.63;100.00
12203;BME280;6164;42.178;24.622;2024-01-11T01:09:30;100849.28;;;-2.55;100.00
12203;BME280;6164;42.178;24.622;2024-01-11T01:11:57;100845.94;;;-2.57;100.00
12203;BME280;6164;42.178;24.622;2024-01-11T01:14:24;100842.28;;;-2.51;100.00
12203;BME280;6164;42.178;24.622;2024-01-11T01:16:51;100841.41;;;-2.50;100.00
12203;BME280;6164;42.178;24.622;2024-01-11T01:19:18;100829.34;;;-2.51;100.00
12203;BME280;6164;42.178;24.622;2024-01-11T01:21:44;100824.28;;;-2.54;100.00
12203;BME280;6164;42.178;24.622;2024-01-11T01:24:11;100822.69;;;-2.57;100.00
12203;BME280;6164;42.178;24.622;2024-01-11T01:26:38;100822.78;;;-2.60;100.00
12203;BME280;6164;42.178;24.622;2024-01-11T01:29:04;100817.59;;;-2.60;100.00
12203;BME280;6164;42.178;24.622;2024-01-11T01:31:31;100817.72;;;-2.63;100.00
12203;BME280;6164;42.178;24.622;2024-01-11T01:34:03;100816.66;;;-2.57;100.00
12203;BME280;6164;42.178;24.622;2024-01-11T01:36:30;100813.28;;;-2.59;100.00
12203;BME280;6164;42.178;24.622;2024-01-11T01:38:57;100809.91;;;-2.61;100.00
12203;BME280;6164;42.178;24.622;2024-01-11T01:41:23;100813.16;;;-2.56;100.00
12203;BME280;6164;42.178;24.622;2024-01-11T01:43:50;100810.69;;;-2.59;100.00
12203;BME280;6164;42.178;24.622;2024-01-11T01:46:19;100803.06;;;-2.62;100.00
12203;BME280;6164;42.178;24.622;2024-01-11T01:48:46;100802.94;;;-2.59;100.00
12203;BME280;6164;42.178;24.622;2024-01-11T01:51:14;100802.81;;;-2.56;100.00
12203;BME280;6164;42.178;24.622;2024-01-11T01:53:43;100797.72;;;-2.58;100.00
12203;BME280;6164;42.178;24.622;2024-01-11T01:56:10;100797.78;;;-2.59;100.00
12203;BME280;6164;42.178;24.622;2024-01-11T01:58:36;100797.16;;;-2.66;100.00
12203;BME280;6164;42.178;24.622;2024-01-11T02:01:03;100787.25;;;-2.78;100.00
12203;BME280;6164;42.178;24.622;2024-01-11T02:03:29;100783.00;;;-2.79;100.00
12203;BME280;6164;42.178;24.622;2024-01-11T02:05:56;100785.91;;;-2.88;100.00
12203;BME280;6164;42.178;24.622;2024-01-11T02:08:24;100779.25;;;-2.94;100.00
12203;BME280;6164;42.178;24.622;2024-01-11T02:10:52;100775.34;;;-3.05;100.00
12203;BME280;6164;42.178;24.622;2024-01-11T02:13:18;100776.41;;;-3.11;100.00
12203;BME280;6164;42.178;24.622;2024-01-11T02:15:46;100775.09;;;-3.22;100.00
12203;BME280;6164;42.178;24.622;2024-01-11T02:18:12;100772.06;;;-3.33;100.00
12203;BME280;6164;42.178;24.622;2024-01-11T02:20:39;100773.88;;;-3.37;100.00
12203;BME280;6164;42.178;24.622;2024-01-11T02:23:06;100766.50;;;-3.47;100.00
12203;BME280;6164;42.178;24.622;2024-01-11T02:25:36;100767.34;;;-3.47;100.00
12203;BME280;6164;42.178;24.622;2024-01-11T02:28:02;100770.84;;;-3.48;100.00
12203;BME280;6164;42.178;24.622;2024-01-11T02:30:29;100769.31;;;-3.53;100.00
12203;BME280;6164;42.178;24.622;2024-01-11T02:32:55;100774.63;;;-3.58;100.00
12203;BME280;6164;42.178;24.622;2024-01-11T02:35:22;100769.13;;;-3.49;100.00
12203;BME280;6164;42.178;24.622;2024-01-11T02:37:50;100774.97;;;-3.44;100.00
12203;BME280;6164;42.178;24.622;2024-01-11T02:40:17;100775.16;;;-3.48;100.00
12203;BME280;6164;42.178;24.622;2024-01-11T02:42:46;100776.59;;;-3.40;100.00
12203;BME280;6164;42.178;24.622;2024-01-11T02:45:12;100773.41;;;-3.48;100.00
12203;BME280;6164;42.178;24.622;2024-01-11T02:47:39;100772.06;;;-3.33;100.00
12203;BME280;6164;42.178;24.622;2024-01-11T02:50:06;100769.19;;;-3.26;100.00
12203;BME280;6164;42.178;24.622;2024-01-11T02:52:33;100770.09;;;-3.27;100.00
12203;BME280;6164;42.178;24.622;2024-01-11T02:54:59;100765.16;;;-3.33;100.00
12203;BME280;6164;42.178;24.622;2024-01-11T02:57:26;100765.50;;;-3.19;100.00
12203;BME280;6164;42.178;24.622;2024-01-11T02:59:54;100768.19;;;-3.22;100.00
12203;BME280;6164;42.178;24.622;2024-01-11T03:02:20;100762.25;;;-3.24;100.00
12203;BME280;6164;42.178;24.622;2024-01-11T03:04:47;100760.28;;;-3.17;100.00
12203;BME280;6164;42.178;24.622;2024-01-11T03:07:14;100773.09;;;-3.14;100.00
12203;BME280;6164;42.178;24.622;2024-01-11T03:09:40;100763.84;;;-3.20;100.00
12203;BME280;6164;42.178;24.622;2024-01-11T03:12:07;100758.22;;;-3.32;100.00
12203;BME280;6164;42.178;24.622;2024-01-11T03:14:33;100753.50;;;-3.44;100.00
12203;BME280;6164;42.178;24.622;2024-01-11T03:17:01;100755.53;;;-3.54;100.00
12203;BME280;6164;42.178;24.622;2024-01-11T03:19:28;100748.28;;;-3.67;100.00
12203;BME280;6164;42.178;24.622;2024-01-11T03:21:54;100751.16;;;-3.76;100.00
12203;BME280;6164;42.178;24.622;2024-01-11T03:24:21;100747.03;;;-3.82;100.00
12203;BME280;6164;42.178;24.622;2024-01-11T03:26:47;100755.72;;;-3.84;100.00
12203;BME280;6164;42.178;24.622;2024-01-11T03:29:14;100749.88;;;-3.89;100.00
12203;BME280;6164;42.178;24.622;2024-01-11T03:31:41;100750.16;;;-3.97;100.00
12203;BME280;6164;42.178;24.622;2024-01-11T03:34:11;100743.22;;;-3.96;100.00
12203;BME280;6164;42.178;24.622;2024-01-11T03:36:37;100745.97;;;-4.01;100.00
12203;BME280;6164;42.178;24.622;2024-01-11T03:39:04;100742.25;;;-3.92;100.00
12203;BME280;6164;42.178;24.622;2024-01-11T03:41:31;100744.09;;;-3.96;100.00
12203;BME280;6164;42.178;24.622;2024-01-11T03:43:57;100741.72;;;-4.02;100.00
12203;BME280;6164;42.178;24.622;2024-01-11T03:46:24;100736.72;;;-4.08;100.00
12203;BME280;6164;42.178;24.622;2024-01-11T03:48:50;100730.06;;;-4.14;100.00
12203;BME280;6164;42.178;24.622;2024-01-11T03:51:18;100739.63;;;-4.17;100.00
12203;BME280;6164;42.178;24.622;2024-01-11T03:53:45;100742.94;;;-4.14;100.00
12203;BME280;6164;42.178;24.622;2024-01-11T03:56:11;100737.75;;;-4.12;100.00
12203;BME280;6164;42.178;24.622;2024-01-11T03:58:38;100728.25;;;-4.12;100.00
12203;BME280;6164;42.178;24.622;2024-01-11T04:01:06;100720.50;;;-4.12;100.00
12203;BME280;6164;42.178;24.622;2024-01-11T04:03:35;100719.63;;;-4.11;100.00
12203;BME280;6164;42.178;24.622;2024-01-11T04:06:02;100717.19;;;-4.15;100.00
12203;BME280;6164;42.178;24.622;2024-01-11T04:08:29;100728.44;;;-4.18;100.00
12203;BME280;6164;42.178;24.622;2024-01-11T04:11:01;100719.91;;;-4.20;100.00
12203;BME280;6164;42.178;24.622;2024-01-11T04:13:28;100707.13;;;-4.23;100.00
12203;BME280;6164;42.178;24.622;2024-01-11T04:15:54;100704.84;;;-4.32;100.00
12203;BME280;6164;42.178;24.622;2024-01-11T04:18:21;100710.88;;;-4.33;100.00
12203;BME280;6164;42.178;24.622;2024-01-11T04:20:47;100707.94;;;-4.21;100.00
12203;BME280;6164;42.178;24.622;2024-01-11T04:23:14;100711.84;;;-4.09;100.00
12203;BME280;6164;42.178;24.622;2024-01-11T04:25:42;100711.78;;;-4.08;100.00
12203;BME280;6164;42.178;24.622;2024-01-11T04:28:08;100712.44;;;-4.01;100.00
12203;BME280;6164;42.178;24.622;2024-01-11T04:30:35;100707.00;;;-3.93;100.00
12203;BME280;6164;42.178;24.622;2024-01-11T04:33:01;100706.78;;;-3.86;100.00
12203;BME280;6164;42.178;24.622;2024-01-11T04:35:28;100705.81;;;-3.83;100.00
12203;BME280;6164;42.178;24.622;2024-01-11T04:37:54;100704.84;;;-3.79;100.00
12203;BME280;6164;42.178;24.622;2024-01-11T04:40:21;100710.69;;;-3.74;100.00
12203;BME280;6164;42.178;24.622;2024-01-11T04:42:52;100703.69;;;-3.71;100.00
12203;BME280;6164;42.178;24.622;2024-01-11T04:45:18;100698.34;;;-3.66;100.00
12203;BME280;6164;42.178;24.622;2024-01-11T04:47:45;100705.13;;;-3.64;100.00
12203;BME280;6164;42.178;24.622;2024-01-11T04:50:11;100705.88;;;-3.60;100.00
12203;BME280;6164;42.178;24.622;2024-01-11T04:52:38;100702.41;;;-3.59;100.00
12203;BME280;6164;42.178;24.622;2024-01-11T04:55:04;100700.72;;;-3.60;100.00
12203;BME280;6164;42.178;24.622;2024-01-11T04:57:31;100695.72;;;-3.65;100.00
12203;BME280;6164;42.178;24.622;2024-01-11T04:59:59;100691.47;;;-3.66;100.00
12203;BME280;6164;42.178;24.622;2024-01-11T05:02:26;100688.81;;;-3.64;100.00
12203;BME280;6164;42.178;24.622;2024-01-11T05:04:52;100685.41;;;-3.65;100.00
12203;BME280;6164;42.178;24.622;2024-01-11T05:07:19;100688.72;;;-3.61;100.00
12203;BME280;6164;42.178;24.622;2024-01-11T05:09:45;100686.09;;;-3.60;100.00
12203;BME280;6164;42.178;24.622;2024-01-11T05:12:12;100685.97;;;-3.57;100.00
12203;BME280;6164;42.178;24.622;2024-01-11T05:14:39;100682.47;;;-3.54;100.00
12203;BME280;6164;42.178;24.622;2024-01-11T05:17:07;100674.59;;;-3.51;100.00
12203;BME280;6164;42.178;24.622;2024-01-11T05:19:33;100678.84;;;-3.50;100.00
12203;BME280;6164;42.178;24.622;2024-01-11T05:22:00;100684.81;;;-3.48;100.00
12203;BME280;6164;42.178;24.622;2024-01-11T05:24:26;100672.63;;;-3.45;100.00
12203;BME280;6164;42.178;24.622;2024-01-11T05:26:53;100675.97;;;-3.41;100.00
12203;BME280;6164;42.178;24.622;2024-01-11T05:29:20;100671.63;;;-3.41;100.00
12203;BME280;6164;42.178;24.622;2024-01-11T05:31:46;100668.03;;;-3.37;100.00
12203;BME280;6164;42.178;24.622;2024-01-11T05:34:14;100677.38;;;-3.33;100.00
12203;BME280;6164;42.178;24.622;2024-01-11T05:36:41;100677.38;;;-3.33;100.00
12203;BME280;6164;42.178;24.622;2024-01-11T05:39:07;100668.78;;;-3.33;100.00
12203;BME280;6164;42.178;24.622;2024-01-11T05:41:34;100668.66;;;-3.30;100.00
12203;BME280;6164;42.178;24.622;2024-01-11T05:44:00;100662.53;;;-3.28;100.00
12203;BME280;6164;42.178;24.622;2024-01-11T05:46:27;100660.91;;;-3.30;100.00
12203;BME280;6164;42.178;24.622;2024-01-11T05:48:53;100660.00;;;-3.29;100.00
12203;BME280;6164;42.178;24.622;2024-01-11T05:51:21;100661.75;;;-3.30;100.00
12203;BME280;6164;42.178;24.622;2024-01-11T05:53:47;100661.22;;;-3.39;100.00
12203;BME280;6164;42.178;24.622;2024-01-11T05:56:14;100659.91;;;-3.49;100.00
12203;BME280;6164;42.178;24.622;2024-01-11T05:58:40;100660.66;;;-3.47;100.00
12203;BME280;6164;42.178;24.622;2024-01-11T06:01:07;100656.41;;;-3.48;100.00
12203;BME280;6164;42.178;24.622;2024-01-11T06:03:33;100662.25;;;-3.43;100.00
12203;BME280;6164;42.178;24.622;2024-01-11T06:06:00;100656.53;;;-3.51;100.00
12203;BME280;6164;42.178;24.622;2024-01-11T06:08:29;100667.53;;;-3.46;100.00
12203;BME280;6164;42.178;24.622;2024-01-11T06:10:56;100661.06;;;-3.58;100.00
12203;BME280;6164;42.178;24.622;2024-01-11T06:13:21;100657.63;;;-3.58;100.00
12203;BME280;6164;42.178;24.622;2024-01-11T06:15:48;100660.09;;;-3.55;100.00
12203;BME280;6164;42.178;24.622;2024-01-11T06:18:15;100658.25;;;-3.52;100.00
12203;BME280;6164;42.178;24.622;2024-01-11T06:20:41;100650.47;;;-3.50;100.00
12203;BME280;6164;42.178;24.622;2024-01-11T06:23:08;100654.78;;;-3.51;100.00
12203;BME280;6164;42.178;24.622;2024-01-11T06:25:35;100654.63;;;-3.46;100.00
12203;BME280;6164;42.178;24.622;2024-01-11T06:28:03;100649.13;;;-3.37;100.00
12203;BME280;6164;42.178;24.622;2024-01-11T06:30:31;100650.53;;;-3.29;100.00
12203;BME280;6164;42.178;24.622;2024-01-11T06:32:58;100650.34;;;-3.24;100.00
12203;BME280;6164;42.178;24.622;2024-01-11T06:35:24;100645.09;;;-3.21;100.00
12203;BME280;6164;42.178;24.622;2024-01-11T06:37:51;100652.59;;;-3.15;100.00
12203;BME280;6164;42.178;24.622;2024-01-11T06:40:17;100644.31;;;-3.23;100.00
12203;BME280;6164;42.178;24.622;2024-01-11T06:42:46;100652.44;;;-3.34;100.00
12203;BME280;6164;42.178;24.622;2024-01-11T06:45:12;100646.66;;;-3.40;100.00
12203;BME280;6164;42.178;24.622;2024-01-11T06:47:39;100647.94;;;-3.29;100.00
12203;BME280;6164;42.178;24.622;2024-01-11T06:50:06;100648.25;;;-3.13;100.00
12203;BME280;6164;42.178;24.622;2024-01-11T06:52:33;100642.84;;;-3.07;100.00
12203;BME280;6164;42.178;24.622;2024-01-11T06:55:00;100639.25;;;-3.03;100.00
12203;BME280;6164;42.178;24.622;2024-01-11T06:57:26;100643.19;;;-2.95;100.00
12203;BME280;6164;42.178;24.622;2024-01-11T06:59:54;100633.16;;;-3.02;100.00
12203;BME280;6164;42.178;24.622;2024-01-11T07:02:21;100637.09;;;-2.92;100.00
12203;BME280;6164;42.178;24.622;2024-01-11T07:04:48;100640.34;;;-2.87;100.00
12203;BME280;6164;42.178;24.622;2024-01-11T07:07:14;100641.00;;;-2.82;100.00
12203;BME280;6164;42.178;24.622;2024-01-11T07:09:41;100638.34;;;-2.81;100.00
12203;BME280;6164;42.178;24.622;2024-01-11T07:12:07;100641.00;;;-2.82;100.00
12203;BME280;6164;42.178;24.622;2024-01-11T07:14:34;100637.81;;;-2.89;100.00
12203;BME280;6164;42.178;24.622;2024-01-11T07:17:02;100645.69;;;-2.92;100.00
12203;BME280;6164;42.178;24.622;2024-01-11T07:19:29;100642.38;;;-2.95;100.00
12203;BME280;6164;42.178;24.622;2024-01-11T07:21:55;100642.66;;;-2.81;100.00
12203;BME280;6164;42.178;24.622;2024-01-11T07:24:22;100639.34;;;-2.85;100.00
12203;BME280;6164;42.178;24.622;2024-01-11T07:26:48;100630.28;;;-2.73;100.00
12203;BME280;6164;42.178;24.622;2024-01-11T07:29:14;100635.13;;;-2.64;100.00
12203;BME280;6164;42.178;24.622;2024-01-11T07:31:41;100633.06;;;-2.56;100.00
12203;BME280;6164;42.178;24.622;2024-01-11T07:34:09;100633.41;;;-2.43;100.00
12203;BME280;6164;42.178;24.622;2024-01-11T07:36:36;100631.19;;;-2.31;100.00
12203;BME280;6164;42.178;24.622;2024-01-11T07:39:02;100627.53;;;-2.27;100.00
12203;BME280;6164;42.178;24.622;2024-01-11T07:41:29;100610.50;;;-2.31;100.00
12203;BME280;6164;42.178;24.622;2024-01-11T07:43:55;100610.03;;;-2.20;100.00
12203;BME280;6164;42.178;24.622;2024-01-11T07:46:24;100603.69;;;-2.13;100.00
12203;BME280;6164;42.178;24.622;2024-01-11T07:48:51;100608.38;;;-2.01;100.00
12203;BME280;6164;42.178;24.622;2024-01-11T07:51:18;100607.97;;;-1.92;100.00
12203;BME280;6164;42.178;24.622;2024-01-11T07:53:44;100608.66;;;-1.69;100.00
12203;BME280;6164;42.178;24.622;2024-01-11T07:56:11;100610.44;;;-1.51;100.00
12203;BME280;6164;42.178;24.622;2024-01-11T07:58:40;100608.91;;;-1.36;100.00
12203;BME280;6164;42.178;24.622;2024-01-11T08:01:06;100607.03;;;-1.14;100.00
12203;BME280;6164;42.178;24.622;2024-01-11T08:03:33;100608.00;;;-0.98;100.00
12203;BME280;6164;42.178;24.622;2024-01-11T08:06:00;100597.72;;;-0.82;100.00
12203;BME280;6164;42.178;24.622;2024-01-11T08:08:28;100592.13;;;-0.73;100.00
12203;BME280;6164;42.178;24.622;2024-01-11T08:10:54;100585.50;;;-0.62;100.00
12203;BME280;6164;42.178;24.622;2024-01-11T08:13:21;100582.22;;;-0.65;100.00
12203;BME280;6164;42.178;24.622;2024-01-11T08:15:47;100579.78;;;-0.68;100.00
12203;BME280;6164;42.178;24.622;2024-01-11T08:18:14;100572.00;;;-0.68;100.00
12203;BME280;6164;42.178;24.622;2024-01-11T08:20:41;100567.44;;;-0.63;100.00
12203;BME280;6164;42.178;24.622;2024-01-11T08:23:07;100559.44;;;-0.59;100.00
12203;BME280;6164;42.178;24.622;2024-01-11T08:25:35;100559.06;;;-0.51;100.00
12203;BME280;6164;42.178;24.622;2024-01-11T08:28:02;100561.59;;;-0.50;100.00
12203;BME280;6164;42.178;24.622;2024-01-11T08:30:29;100555.84;;;-0.39;100.00
12203;BME280;6164;42.178;24.622;2024-01-11T08:32:55;100557.22;;;-0.32;100.00
12203;BME280;6164;42.178;24.622;2024-01-11T08:35:21;100553.88;;;-0.17;100.00
12203;BME280;6164;42.178;24.622;2024-01-11T08:37:48;100548.09;;;-0.07;100.00
12203;BME280;6164;42.178;24.622;2024-01-11T08:40:14;100550.84;;;0.08;100.00
12203;BME280;6164;42.178;24.622;2024-01-11T08:42:43;100552.91;;;0.18;100.00
12203;BME280;6164;42.178;24.622;2024-01-11T08:45:09;100552.31;;;0.29;100.00
12203;BME280;6164;42.178;24.622;2024-01-11T08:47:42;100547.91;;;0.31;100.00
12203;BME280;6164;42.178;24.622;2024-01-11T08:50:11;100536.09;;;0.41;100.00
12203;BME280;6164;42.178;24.622;2024-01-11T08:52:38;100528.91;;;0.46;100.00
12203;BME280;6164;42.178;24.622;2024-01-11T08:55:05;100524.13;;;0.54;100.00
12203;BME280;6164;42.178;24.622;2024-01-11T08:57:31;100520.53;;;0.72;100.00
12203;BME280;6164;42.178;24.622;2024-01-11T08:59:59;100514.22;;;0.76;100.00
12203;BME280;6164;42.178;24.622;2024-01-11T09:02:26;100517.59;;;0.78;100.00
12203;BME280;6164;42.178;24.622;2024-01-11T09:04:58;100503.34;;;0.69;100.00
12203;BME280;6164;42.178;24.622;2024-01-11T09:07:24;100495.63;;;0.83;100.00
12203;BME280;6164;42.178;24.622;2024-01-11T09:09:51;100486.13;;;0.98;100.00
12203;BME280;6164;42.178;24.622;2024-01-11T09:12:19;100481.00;;;1.12;100.00
12203;BME280;6164;42.178;24.622;2024-01-11T09:14:45;100475.56;;;1.30;100.00
12203;BME280;6164;42.178;24.622;2024-01-11T09:17:13;100479.00;;;1.31;100.00
12203;BME280;6164;42.178;24.622;2024-01-11T09:19:40;100467.91;;;1.43;100.00
12203;BME280;6164;42.178;24.622;2024-01-11T09:22:06;100463.38;;;1.61;100.00
12203;BME280;6164;42.178;24.622;2024-01-11T09:24:35;100462.47;;;1.76;100.00
12203;BME280;6164;42.178;24.622;2024-01-11T09:27:01;100453.53;;;1.80;100.00
12203;BME280;6164;42.178;24.622;2024-01-11T09:29:28;100452.03;;;1.76;100.00
12203;BME280;6164;42.178;24.622;2024-01-11T09:31:54;100441.16;;;1.83;100.00
12203;BME280;6164;42.178;24.622;2024-01-11T09:34:22;100437.44;;;1.87;100.00
12203;BME280;6164;42.178;24.622;2024-01-11T09:36:49;100428.25;;;1.96;100.00
12203;BME280;6164;42.178;24.622;2024-01-11T09:39:15;100413.53;;;2.09;100.00
12203;BME280;6164;42.178;24.622;2024-01-11T09:41:42;100420.81;;;2.04;100.00
12203;BME280;6164;42.178;24.622;2024-01-11T09:44:12;100409.78;;;2.13;100.00
12203;BME280;6164;42.178;24.622;2024-01-11T09:46:39;100406.84;;;2.19;100.00
12203;BME280;6164;42.178;24.622;2024-01-11T09:49:05;100397.50;;;2.29;100.00
12203;BME280;6164;42.178;24.622;2024-01-11T09:51:35;100396.00;;;2.25;100.00
12203;BME280;6164;42.178;24.622;2024-01-11T09:54:04;100379.34;;;2.27;100.00
12203;BME280;6164;42.178;24.622;2024-01-11T09:56:32;100380.19;;;2.28;100.00
12203;BME280;6164;42.178;24.622;2024-01-11T09:59:00;100383.09;;;2.23;100.00
12203;BME280;6164;42.178;24.622;2024-01-11T10:01:31;100370.16;;;2.22;100.00
12203;BME280;6164;42.178;24.622;2024-01-11T10:03:57;100366.97;;;2.31;100.00
12203;BME280;6164;42.178;24.622;2024-01-11T10:06:24;100361.75;;;2.31;100.00
12203;BME280;6164;42.178;24.622;2024-01-11T10:08:53;100357.72;;;2.39;100.00
12203;BME280;6164;42.178;24.622;2024-01-11T10:11:20;100353.34;;;2.66;100.00
12203;BME280;6164;42.178;24.622;2024-01-11T10:13:46;100358.00;;;2.88;100.00
12203;BME280;6164;42.178;24.622;2024-01-11T10:16:13;100345.59;;;3.04;100.00
12203;BME280;6164;42.178;24.622;2024-01-11T10:18:40;100343.19;;;3.01;100.00
12203;BME280;6164;42.178;24.622;2024-01-11T10:21:07;100342.47;;;2.99;100.00
12203;BME280;6164;42.178;24.622;2024-01-11T10:23:34;100325.56;;;3.05;100.00
12203;BME280;6164;42.178;24.622;2024-01-11T10:26:03;100328.06;;;3.06;100.00
12203;BME280;6164;42.178;24.622;2024-01-11T10:28:29;100325.56;;;3.17;100.00
12203;BME280;6164;42.178;24.622;2024-01-11T10:30:56;100316.59;;;3.34;100.00
12203;BME280;6164;42.178;24.622;2024-01-11T10:33:22;100305.63;;;3.54;100.00
12203;BME280;6164;42.178;24.622;2024-01-11T10:35:49;100303.38;;;3.73;100.00
12203;BME280;6164;42.178;24.622;2024-01-11T10:38:16;100290.59;;;3.93;100.00
12203;BME280;6164;42.178;24.622;2024-01-11T10:40:43;100297.41;;;4.07;100.00
12203;BME280;6164;42.178;24.622;2024-01-11T10:43:11;100302.63;;;3.83;100.00
12203;BME280;6164;42.178;24.622;2024-01-11T10:45:38;100293.72;;;3.98;100.00
12203;BME280;6164;42.178;24.622;2024-01-11T10:48:06;100288.75;;;4.07;100.00
12203;BME280;6164;42.178;24.622;2024-01-11T10:50:34;100288.47;;;4.22;100.00
12203;BME280;6164;42.178;24.622;2024-01-11T10:53:08;100276.78;;;4.39;100.00
12203;BME280;6164;42.178;24.622;2024-01-11T10:55:38;100282.97;;;4.38;100.00
12203;BME280;6164;42.178;24.622;2024-01-11T10:58:05;100279.25;;;4.29;100.00
12203;BME280;6164;42.178;24.622;2024-01-11T11:00:34;100270.69;;;4.27;100.00
12203;BME280;6164;42.178;24.622;2024-01-11T11:03:01;100259.84;;;4.44;100.00
12203;BME280;6164;42.178;24.622;2024-01-11T11:05:28;100255.09;;;4.49;100.00
12203;BME280;6164;42.178;24.622;2024-01-11T11:07:56;100244.31;;;4.65;100.00
12203;BME280;6164;42.178;24.622;2024-01-11T11:10:23;100245.28;;;4.75;100.00
12203;BME280;6164;42.178;24.622;2024-01-11T11:12:51;100241.88;;;4.85;100.00
12203;BME280;6164;42.178;24.622;2024-01-11T11:15:17;100235.56;;;4.77;100.00
12203;BME280;6164;42.178;24.622;2024-01-11T11:17:46;100237.13;;;4.79;100.00
12203;BME280;6164;42.178;24.622;2024-01-11T11:20:13;100225.09;;;4.88;100.00
12203;BME280;6164;42.178;24.622;2024-01-11T11:22:41;100229.03;;;4.93;100.00
12203;BME280;6164;42.178;24.622;2024-01-11T11:25:08;100219.16;;;5.08;100.00
12203;BME280;6164;42.178;24.622;2024-01-11T11:27:35;100227.13;;;5.17;100.00
12203;BME280;6164;42.178;24.622;2024-01-11T11:30:02;100224.19;;;5.22;100.00
12203;BME280;6164;42.178;24.622;2024-01-11T11:32:35;100226.91;;;5.31;100.00
12203;BME280;6164;42.178;24.622;2024-01-11T11:35:04;100216.44;;;5.43;100.00
12203;BME280;6164;42.178;24.622;2024-01-11T11:37:30;100210.22;;;5.55;100.00
12203;BME280;6164;42.178;24.622;2024-01-11T11:39:57;100218.56;;;5.49;100.00
12203;BME280;6164;42.178;24.622;2024-01-11T11:42:24;100218.47;;;5.50;100.00
12203;BME280;6164;42.178;24.622;2024-01-11T11:44:51;100218.94;;;5.33;100.00
12203;BME280;6164;42.178;24.622;2024-01-11T11:47:18;100190.38;;;5.41;100.00
12203;BME280;6164;42.178;24.622;2024-01-11T11:49:57;100183.22;;;5.43;100.00
12203;BME280;6164;42.178;24.622;2024-01-11T11:52:26;100173.34;;;5.47;100.00
12203;BME280;6164;42.178;24.622;2024-01-11T11:54:55;100167.97;;;5.59;100.00
12203;BME280;6164;42.178;24.622;2024-01-11T11:57:22;100160.22;;;5.58;100.00
12203;BME280;6164;42.178;24.622;2024-01-11T11:59:49;100145.78;;;5.74;100.00
12203;BME280;6164;42.178;24.622;2024-01-11T12:02:16;100136.69;;;5.89;100.00
12203;BME280;6164;42.178;24.622;2024-01-11T12:04:46;100142.84;;;5.99;100.00
12203;BME280;6164;42.178;24.622;2024-01-11T12:07:12;100140.34;;;5.98;100.00
12203;BME280;6164;42.178;24.622;2024-01-11T12:09:40;100134.94;;;6.10;100.00
12203;BME280;6164;42.178;24.622;2024-01-11T12:12:07;100127.72;;;6.23;100.00
12203;BME280;6164;42.178;24.622;2024-01-11T12:14:33;100122.38;;;6.34;100.00
12203;BME280;6164;42.178;24.622;2024-01-11T12:17:00;100115.03;;;6.49;100.00
12203;BME280;6164;42.178;24.622;2024-01-11T12:19:27;100126.53;;;6.57;100.00
12203;BME280;6164;42.178;24.622;2024-01-11T12:21:54;100138.88;;;6.66;100.00
12203;BME280;6164;42.178;24.622;2024-01-11T12:24:20;100116.91;;;6.67;100.00
12203;BME280;6164;42.178;24.622;2024-01-11T12:26:49;100121.34;;;6.67;100.00
12203;BME280;6164;42.178;24.622;2024-01-11T12:29:17;100116.72;;;6.80;100.00
12203;BME280;6164;42.178;24.622;2024-01-11T12:31:43;100104.75;;;6.97;100.00
12203;BME280;6164;42.178;24.622;2024-01-11T12:34:10;100105.19;;;7.02;100.00
12203;BME280;6164;42.178;24.622;2024-01-11T12:36:37;100100.25;;;7.08;100.00
12203;BME280;6164;42.178;24.622;2024-01-11T12:39:04;100107.56;;;7.14;100.00
12203;BME280;6164;42.178;24.622;2024-01-11T12:41:31;100093.09;;;7.20;99.30